createdAt,value
2022-09-20T00:01:07.398Z,9.45
2022-09-20T00:03:35.712Z,9.46
2022-09-20T00:06:04.208Z,9.45
2022-09-20T00:08:31.732Z,9.45
2022-09-20T00:11:02.638Z,9.34
2022-09-20T00:13:30.675Z,9.63
2022-09-20T00:15:58.790Z,9.49
2022-09-20T00:18:26.403Z,9.58
2022-09-20T00:20:54.282Z,9.46
2022-09-20T00:23:21.734Z,9.38
2022-09-20T00:25:56.322Z,9.46
2022-09-20T00:28:25.851Z,9.58
2022-09-20T00:30:53.850Z,9.51
2022-09-20T00:33:21.451Z,9.87
2022-09-20T00:35:48.338Z,9.67
2022-09-20T00:38:16.913Z,9.35
2022-09-20T00:40:46.229Z,9.25
2022-09-20T00:43:16.793Z,8.93
2022-09-20T00:45:50.371Z,8.97
2022-09-20T00:48:28.309Z,8.82
2022-09-20T00:51:00.516Z,8.98
2022-09-20T00:53:32.360Z,9.25
2022-09-20T00:56:04.708Z,9.14
2022-09-20T00:58:37.650Z,8.98
2022-09-20T01:01:07.572Z,9.13
2022-09-20T01:03:37.676Z,9.09
2022-09-20T01:06:08.180Z,8.97
2022-09-20T01:08:37.410Z,9.01
2022-09-20T01:11:05.584Z,9.19
2022-09-20T01:13:33.050Z,9.07
2022-09-20T01:16:03.306Z,9.11
2022-09-20T01:18:34.219Z,9.28
2022-09-20T01:21:03.574Z,9.52
2022-09-20T01:23:43.559Z,9.53
2022-09-20T01:26:43.993Z,9.87
2022-09-20T01:29:27.736Z,9.54
2022-09-20T01:31:57.845Z,9.90
2022-09-20T01:34:30.664Z,10.03
2022-09-20T01:37:05.903Z,9.77
2022-09-20T01:39:41.227Z,9.50
2022-09-20T01:42:11.520Z,9.09
2022-09-20T01:44:52.718Z,9.62
2022-09-20T01:47:32.071Z,9.64
2022-09-20T01:50:09.667Z,9.35
2022-09-20T01:53:16.806Z,9.22
2022-09-20T01:56:20.492Z,9.16
2022-09-20T01:59:29.348Z,9.22
2022-09-20T02:02:10.538Z,9.31
2022-09-20T02:05:11.630Z,9.28
2022-09-20T02:07:59.328Z,9.04
2022-09-20T02:10:55.902Z,8.89
2022-09-20T02:13:30.694Z,8.94
2022-09-20T02:16:17.086Z,9.10
2022-09-20T02:19:08.354Z,9.07
2022-09-20T02:21:39.433Z,8.97
2022-09-20T02:24:18.793Z,9.31
2022-09-20T02:26:58.307Z,9.65
2022-09-20T02:29:36.635Z,9.59
2022-09-20T02:32:24.016Z,9.06
2022-09-20T02:35:19.680Z,8.81
2022-09-20T02:38:01.132Z,8.98
2022-09-20T02:40:46.753Z,9.05
2022-09-20T02:43:22.580Z,9.45
2022-09-20T02:46:00.077Z,9.10
2022-09-20T02:48:35.616Z,9.01
2022-09-20T02:51:09.773Z,9.00
2022-09-20T02:53:46.716Z,9.37
2022-09-20T02:56:23.322Z,9.67
2022-09-20T02:59:00.134Z,9.00
2022-09-20T03:01:40.612Z,8.96
2022-09-20T03:04:22.353Z,9.11
2022-09-20T03:06:58.670Z,9.10
2022-09-20T03:09:34.968Z,9.02
2022-09-20T03:12:11.963Z,8.97
2022-09-20T03:14:47.703Z,9.06
2022-09-20T03:17:24.075Z,9.25
2022-09-20T03:20:06.518Z,8.96
2022-09-20T03:22:49.736Z,9.06
2022-09-20T03:25:36.794Z,8.93
2022-09-20T03:28:35.474Z,8.86
2022-09-20T03:31:13.130Z,8.78
2022-09-20T03:33:48.726Z,9.01
2022-09-20T03:36:34.209Z,8.96
2022-09-20T03:39:26.182Z,9.08
2022-09-20T03:42:03.730Z,8.86
2022-09-20T03:44:58.596Z,9.06
2022-09-20T03:47:44.736Z,9.08
2022-09-20T03:50:34.331Z,9.25
2022-09-20T03:53:26.148Z,9.05
2022-09-20T03:56:23.487Z,8.97
2022-09-20T03:59:11.235Z,9.30
2022-09-20T04:02:00.310Z,9.27
2022-09-20T04:04:37.277Z,9.09
2022-09-20T04:07:18.616Z,8.94
2022-09-20T04:10:20.037Z,8.89
2022-09-20T04:13:18.551Z,8.77
2022-09-20T04:15:57.920Z,8.91
2022-09-20T04:18:34.632Z,9.04
2022-09-20T04:21:07.504Z,9.13
2022-09-20T04:23:43.765Z,9.25
2022-09-20T04:26:11.578Z,9.34
2022-09-20T04:28:48.253Z,9.53
2022-09-20T04:31:28.549Z,9.54
2022-09-20T04:33:59.061Z,9.55
2022-09-20T04:36:37.487Z,10.04
2022-09-20T04:39:17.324Z,9.72
2022-09-20T04:42:23.801Z,9.55
2022-09-20T04:45:29.043Z,9.00
2022-09-20T04:48:17.442Z,9.06
2022-09-20T04:51:15.047Z,9.08
2022-09-20T04:54:07.338Z,9.03
2022-09-20T04:56:51.114Z,9.21
2022-09-20T04:59:34.088Z,9.29
2022-09-20T05:02:25.856Z,9.09
2022-09-20T05:05:30.005Z,9.18
2022-09-20T05:08:29.574Z,9.16
2022-09-20T05:11:30.342Z,9.06
2022-09-20T05:14:17.060Z,9.42
2022-09-20T05:17:03.829Z,9.20
2022-09-20T05:19:37.959Z,9.19
2022-09-20T05:22:25.656Z,9.40
2022-09-20T05:25:21.698Z,9.09
2022-09-20T05:27:54.995Z,9.09
2022-09-20T05:30:33.425Z,9.18
2022-09-20T05:33:13.743Z,9.39
2022-09-20T05:35:47.387Z,9.26
2022-09-20T05:38:24.204Z,9.48
2022-09-20T05:41:08.140Z,9.53
2022-09-20T05:43:43.082Z,9.62
2022-09-20T05:46:19.478Z,9.53
2022-09-20T05:48:56.315Z,9.86
2022-09-20T05:51:36.516Z,9.77
2022-09-20T05:54:29.883Z,9.53
2022-09-20T05:57:12.416Z,9.69
2022-09-20T05:59:55.773Z,9.81
2022-09-20T06:02:31.556Z,10.42
2022-09-20T06:05:03.938Z,10.64
2022-09-20T06:07:46.033Z,10.69
2022-09-20T06:10:52.893Z,10.31
2022-09-20T06:13:36.142Z,10.41
2022-09-20T06:16:05.354Z,10.17
2022-09-20T06:18:39.235Z,10.47
2022-09-20T06:21:22.220Z,10.29
2022-09-20T06:23:50.021Z,10.32
2022-09-20T06:26:20.619Z,10.60
2022-09-20T06:28:56.445Z,11.28
2022-09-20T06:31:26.406Z,12.25
2022-09-20T06:33:59.696Z,12.92
2022-09-20T06:36:48.479Z,12.80
2022-09-20T06:39:44.495Z,13.35
2022-09-20T06:42:12.444Z,12.91
2022-09-20T06:44:43.166Z,12.88
2022-09-20T06:47:11.968Z,13.18
2022-09-20T06:49:41.758Z,13.78
2022-09-20T06:52:14.454Z,13.41
2022-09-20T06:54:45.592Z,13.37
2022-09-20T06:57:15.091Z,12.33
2022-09-20T06:59:43.886Z,11.83
2022-09-20T07:02:11.383Z,10.78
2022-09-20T07:04:39.047Z,10.92
2022-09-20T07:07:09.589Z,10.77
2022-09-20T07:09:37.299Z,11.37
2022-09-20T07:12:05.078Z,11.75
2022-09-20T07:14:32.524Z,10.85
2022-09-20T07:17:01.323Z,10.73
2022-09-20T07:19:28.792Z,10.87
2022-09-20T07:21:56.479Z,11.79
2022-09-20T07:24:23.912Z,12.29
2022-09-20T07:26:59.097Z,11.62
2022-09-20T07:29:27.118Z,11.48
2022-09-20T07:31:54.987Z,11.00
2022-09-20T07:34:23.976Z,11.79
2022-09-20T07:36:52.235Z,11.57
2022-09-20T07:39:20.035Z,11.48
2022-09-20T07:41:48.420Z,10.93
2022-09-20T07:44:24.331Z,10.96
2022-09-20T07:46:52.721Z,11.88
2022-09-20T07:49:21.208Z,11.36
2022-09-20T07:51:50.804Z,10.84
2022-09-20T07:54:18.644Z,12.12
2022-09-20T07:56:46.885Z,13.00
2022-09-20T07:59:15.129Z,14.59
2022-09-20T08:01:43.262Z,13.61
2022-09-20T08:04:11.548Z,12.74
2022-09-20T08:06:40.547Z,12.15
2022-09-20T08:09:11.303Z,13.10
2022-09-20T08:11:40.030Z,12.70
2022-09-20T08:14:17.363Z,12.88
2022-09-20T08:16:47.184Z,13.85
2022-09-20T08:19:17.642Z,13.27
2022-09-20T08:21:45.325Z,14.51
2022-09-20T08:24:16.291Z,13.34
2022-09-20T08:26:44.575Z,13.30
2022-09-20T08:29:13.342Z,13.45
2022-09-20T08:31:42.560Z,13.21
2022-09-20T08:34:12.125Z,14.43
2022-09-20T08:36:42.048Z,15.05
2022-09-20T08:42:09.459Z,13.18
2022-09-20T08:44:47.729Z,12.16
2022-09-20T08:47:20.570Z,11.33
2022-09-20T08:49:48.679Z,12.27
2022-09-20T08:52:20.776Z,12.16
2022-09-20T08:54:48.295Z,12.42
2022-09-20T08:57:19.256Z,12.25
2022-09-20T08:59:47.220Z,12.40
2022-09-20T09:02:17.980Z,12.63
2022-09-20T09:04:45.988Z,13.53
2022-09-20T09:07:15.191Z,12.91
2022-09-20T09:09:44.581Z,13.08
2022-09-20T09:12:21.846Z,13.93
2022-09-20T09:14:54.711Z,14.73
2022-09-20T09:17:27.460Z,14.37
2022-09-20T09:19:56.872Z,13.90
2022-09-20T09:22:29.196Z,14.08
2022-09-20T09:25:24.626Z,15.06
2022-09-20T09:27:56.086Z,14.99
2022-09-20T09:30:27.368Z,13.58
2022-09-20T09:33:22.871Z,13.61
2022-09-20T09:35:56.140Z,13.05
2022-09-20T09:38:25.535Z,12.64
2022-09-20T09:40:55.439Z,12.36
2022-09-20T09:43:27.193Z,11.98
2022-09-20T09:45:55.309Z,11.91
2022-09-20T09:48:27.564Z,12.11
2022-09-20T09:51:12.996Z,12.83
2022-09-20T09:53:41.545Z,13.73
2022-09-20T09:56:25.220Z,13.84
2022-09-20T09:59:12.390Z,13.51
2022-09-20T10:01:45.930Z,12.52
2022-09-20T10:04:21.455Z,11.67
2022-09-20T10:06:54.880Z,11.51
2022-09-20T10:09:36.387Z,11.38
2022-09-20T10:12:17.613Z,11.34
2022-09-20T10:15:03.213Z,11.01
2022-09-20T10:17:50.711Z,10.90
2022-09-20T10:20:35.467Z,11.92
2022-09-20T10:23:58.501Z,13.14
2022-09-20T10:26:13.236Z,15.42
2022-09-20T10:28:54.084Z,14.09
2022-09-20T10:31:35.508Z,13.09
2022-09-20T10:34:21.316Z,11.92
2022-09-20T10:36:55.036Z,12.55
2022-09-20T10:39:29.256Z,13.43
2022-09-20T10:42:26.890Z,14.26
2022-09-20T10:45:09.505Z,15.05
2022-09-20T10:47:47.931Z,14.83
2022-09-20T10:50:31.579Z,14.84
2022-09-20T10:53:14.883Z,13.93
2022-09-20T10:55:48.680Z,14.37
2022-09-20T10:59:06.809Z,13.75
2022-09-20T11:01:44.929Z,13.96
2022-09-20T11:04:32.996Z,14.43
2022-09-20T11:07:10.639Z,14.63
2022-09-20T11:09:43.608Z,15.60
2022-09-20T11:12:17.097Z,15.81
2022-09-20T11:14:50.373Z,15.38
2022-09-20T11:17:25.194Z,15.20
2022-09-20T11:20:04.724Z,14.89
2022-09-20T11:22:43.280Z,15.11
2022-09-20T11:25:21.520Z,12.70
2022-09-20T11:27:54.689Z,10.91
2022-09-20T11:30:23.550Z,10.23
2022-09-20T11:32:54.939Z,10.29
2022-09-20T11:35:29.098Z,10.28
2022-09-20T11:38:09.425Z,10.58
2022-09-20T11:40:42.187Z,10.55
2022-09-20T11:43:10.831Z,10.65
2022-09-20T11:45:42.901Z,11.16
2022-09-20T11:48:18.817Z,11.67
2022-09-20T11:51:03.568Z,12.97
2022-09-20T11:53:43.795Z,14.34
2022-09-20T11:56:19.442Z,14.02
2022-09-20T11:58:48.976Z,13.43
2022-09-20T12:01:28.290Z,13.31
2022-09-20T12:04:20.666Z,12.36
2022-09-20T12:06:47.341Z,11.78
2022-09-20T12:09:26.299Z,11.80
2022-09-20T12:11:56.550Z,13.10
2022-09-20T12:14:27.323Z,14.36
2022-09-20T12:16:56.339Z,14.90
2022-09-20T12:19:40.032Z,14.59
2022-09-20T12:22:28.463Z,15.49
2022-09-20T12:25:33.428Z,15.14
2022-09-20T12:28:02.472Z,16.62
2022-09-20T12:30:32.316Z,15.94
2022-09-20T12:33:01.007Z,15.44
2022-09-20T12:36:00.506Z,13.94
2022-09-20T12:38:34.588Z,13.51
2022-09-20T12:41:04.970Z,14.32
2022-09-20T12:43:36.908Z,15.60
2022-09-20T12:46:09.894Z,16.34
2022-09-20T12:48:39.534Z,16.20
2022-09-20T12:51:37.262Z,14.83
2022-09-20T12:54:07.506Z,14.06
2022-09-20T12:56:38.921Z,15.29
2022-09-20T12:59:22.886Z,14.59
2022-09-20T13:01:50.790Z,12.93
2022-09-20T13:04:55.661Z,12.16
2022-09-20T13:07:48.914Z,11.36
2022-09-20T13:10:26.155Z,11.05
2022-09-20T13:12:56.925Z,11.03
2022-09-20T13:15:26.226Z,10.92
2022-09-20T13:17:56.758Z,11.07
2022-09-20T13:20:26.685Z,11.42
2022-09-20T13:22:59.540Z,11.73
2022-09-20T13:25:28.456Z,11.33
2022-09-20T13:28:04.267Z,11.65
2022-09-20T13:30:33.362Z,11.78
2022-09-20T13:33:17.289Z,12.11
2022-09-20T13:35:48.237Z,12.45
2022-09-20T13:38:22.321Z,12.62
2022-09-20T13:40:51.516Z,12.45
2022-09-20T13:43:28.116Z,12.30
2022-09-20T13:45:59.568Z,13.02
2022-09-20T13:48:28.352Z,13.19
2022-09-20T13:50:57.119Z,13.27
2022-09-20T13:53:41.040Z,13.26
2022-09-20T13:56:11.503Z,13.11
2022-09-20T13:58:39.208Z,13.59
2022-09-20T14:01:23.912Z,13.78
2022-09-20T14:03:51.525Z,14.24
2022-09-20T14:06:19.087Z,14.00
2022-09-20T14:08:49.358Z,14.65
2022-09-20T14:11:19.724Z,14.00
2022-09-20T14:13:50.754Z,14.11
2022-09-20T14:16:21.066Z,14.05
2022-09-20T14:18:50.502Z,14.61
2022-09-20T14:21:23.577Z,14.37
2022-09-20T14:23:53.382Z,14.41
2022-09-20T14:26:26.763Z,14.31
2022-09-20T14:28:54.603Z,14.89
2022-09-20T14:31:26.241Z,14.58
2022-09-20T14:33:57.743Z,14.08
2022-09-20T14:36:27.391Z,14.99
2022-09-20T14:38:58.130Z,14.62
2022-09-20T14:41:28.841Z,14.84
2022-09-20T14:43:59.781Z,14.13
2022-09-20T14:46:35.356Z,14.61
2022-09-20T14:49:30.966Z,14.52
2022-09-20T14:52:37.203Z,14.42
2022-09-20T14:55:20.167Z,14.85
2022-09-20T14:57:48.492Z,15.37
2022-09-20T15:00:17.656Z,14.60
2022-09-20T15:02:47.560Z,15.11
2022-09-20T15:05:21.452Z,15.44
2022-09-20T15:07:48.958Z,15.20
2022-09-20T15:10:17.020Z,15.04
2022-09-20T15:12:44.491Z,15.07
2022-09-20T15:15:15.814Z,14.39
2022-09-20T15:17:43.974Z,13.71
2022-09-20T15:20:23.988Z,13.25
2022-09-20T15:22:52.287Z,13.50
2022-09-20T15:25:21.862Z,12.94
2022-09-20T15:27:50.785Z,12.85
2022-09-20T15:30:20.887Z,12.90
2022-09-20T15:32:48.461Z,13.03
2022-09-20T15:35:17.376Z,13.09
2022-09-20T15:37:45.393Z,13.12
2022-09-20T15:40:13.293Z,13.09
2022-09-20T15:42:41.994Z,12.96
2022-09-20T15:45:11.936Z,12.66
2022-09-20T15:47:40.567Z,12.73
2022-09-20T15:50:09.670Z,12.59
2022-09-20T15:52:40.598Z,12.47
2022-09-20T15:55:09.533Z,12.47
2022-09-20T15:57:37.011Z,12.17
2022-09-20T16:00:05.099Z,12.32
2022-09-20T16:02:32.582Z,12.69
2022-09-20T16:05:00.174Z,12.83
2022-09-20T16:07:27.645Z,13.46
2022-09-20T16:09:57.620Z,13.53
2022-09-20T16:12:26.291Z,13.73
2022-09-20T16:14:53.748Z,13.16
2022-09-20T16:17:41.552Z,12.88
2022-09-20T16:20:08.762Z,13.00
2022-09-20T16:22:36.208Z,12.87
2022-09-20T16:25:06.655Z,13.05
2022-09-20T16:27:34.931Z,12.84
2022-09-20T16:30:02.936Z,12.63
2022-09-20T16:32:30.418Z,12.64
2022-09-20T16:35:01.064Z,13.02
2022-09-20T16:37:32.718Z,12.75
2022-09-20T16:40:00.472Z,12.48
2022-09-20T16:42:29.385Z,12.71
2022-09-20T16:44:57.035Z,12.71
2022-09-20T16:47:25.066Z,12.29
2022-09-20T16:49:54.071Z,11.87
2022-09-20T16:52:22.048Z,11.96
2022-09-20T16:54:49.772Z,11.80
2022-09-20T16:57:17.235Z,11.83
2022-09-20T16:59:46.534Z,11.87
2022-09-20T17:02:14.425Z,11.88
2022-09-20T17:04:43.467Z,12.02
2022-09-20T17:07:10.964Z,11.43
2022-09-20T17:09:38.418Z,11.10
2022-09-20T17:12:09.338Z,11.06
2022-09-20T17:14:37.874Z,11.15
2022-09-20T17:17:06.648Z,11.31
2022-09-20T17:19:34.350Z,11.71
2022-09-20T17:22:01.841Z,12.17
2022-09-20T17:24:30.123Z,12.50
2022-09-20T17:26:57.592Z,12.82
2022-09-20T17:29:25.056Z,12.32
2022-09-20T17:31:56.072Z,11.97
2022-09-20T17:34:27.958Z,11.11
2022-09-20T17:36:56.103Z,11.03
2022-09-20T17:39:23.873Z,11.55
2022-09-20T17:41:51.703Z,11.41
2022-09-20T17:44:19.582Z,10.89
2022-09-20T17:46:49.533Z,10.51
2022-09-20T17:49:19.260Z,10.31
2022-09-20T17:51:49.448Z,10.17
2022-09-20T17:54:17.088Z,10.59
2022-09-20T17:56:47.067Z,10.66
2022-09-20T17:59:16.463Z,10.62
2022-09-20T18:01:45.090Z,11.57
2022-09-20T18:04:13.599Z,11.64
2022-09-20T18:06:43.006Z,11.42
2022-09-20T18:09:14.929Z,11.74
2022-09-20T18:11:45.279Z,11.37
2022-09-20T18:14:13.881Z,11.33
2022-09-20T18:16:44.152Z,10.07
2022-09-20T18:19:12.476Z,9.93
2022-09-20T18:21:40.935Z,9.97
2022-09-20T18:24:10.552Z,10.14
2022-09-20T18:26:39.749Z,10.37
2022-09-20T18:29:09.450Z,10.74
2022-09-20T18:31:38.466Z,10.96
2022-09-20T18:34:07.982Z,10.81
2022-09-20T18:36:38.332Z,11.00
2022-09-20T18:39:06.568Z,11.17
2022-09-20T18:41:36.103Z,11.24
2022-09-20T18:44:07.102Z,11.29
2022-09-20T18:46:37.735Z,11.33
2022-09-20T18:49:08.248Z,11.37
2022-09-20T18:51:39.701Z,11.27
2022-09-20T18:54:10.020Z,11.34
2022-09-20T18:56:38.873Z,11.11
2022-09-20T18:59:13.976Z,11.11
2022-09-20T19:02:03.098Z,11.24
2022-09-20T19:05:03.525Z,11.19
2022-09-20T19:07:42.088Z,11.16
2022-09-20T19:10:18.441Z,11.05
2022-09-20T19:12:52.548Z,10.98
2022-09-20T19:15:42.710Z,10.97
2022-09-20T19:18:24.201Z,10.95
2022-09-20T19:20:58.841Z,10.91
2022-09-20T19:23:41.112Z,10.79
2022-09-20T19:26:19.086Z,10.74
2022-09-20T19:28:47.416Z,10.59
2022-09-20T19:31:22.428Z,10.57
2022-09-20T19:33:50.449Z,10.48
2022-09-20T19:36:19.084Z,10.49
2022-09-20T19:38:52.920Z,10.39
2022-09-20T19:41:32.917Z,10.24
2022-09-20T19:44:15.245Z,10.24
2022-09-20T19:47:01.416Z,10.10
2022-09-20T19:49:37.372Z,10.07
2022-09-20T19:52:08.934Z,9.96
2022-09-20T19:54:38.254Z,9.92
2022-09-20T19:57:08.299Z,9.85
2022-09-20T19:59:36.646Z,9.78
2022-09-20T20:02:06.485Z,9.74
2022-09-20T20:04:34.587Z,9.64
2022-09-20T20:07:09.140Z,9.66
2022-09-20T20:09:44.241Z,9.71
2022-09-20T20:12:21.492Z,9.58
2022-09-20T20:15:01.108Z,9.33
2022-09-20T20:17:45.905Z,9.32
2022-09-20T20:20:24.035Z,9.28
2022-09-20T20:23:09.272Z,9.21
2022-09-20T20:25:46.207Z,9.29
2022-09-20T20:28:13.763Z,9.26
2022-09-20T20:30:41.215Z,9.19
2022-09-20T20:33:15.006Z,8.98
2022-09-20T20:35:42.484Z,9.15
2022-09-20T20:38:10.567Z,9.19
2022-09-20T20:40:38.392Z,8.96
2022-09-20T20:43:06.047Z,8.31
2022-09-20T20:45:33.515Z,8.30
2022-09-20T20:48:01.170Z,8.39
2022-09-20T20:50:30.370Z,8.77
2022-09-20T20:52:58.192Z,8.89
2022-09-20T20:55:25.692Z,8.82
2022-09-20T20:57:57.287Z,8.88
2022-09-20T21:00:25.151Z,8.85
2022-09-20T21:02:58.241Z,8.85
2022-09-20T21:05:25.911Z,8.77
2022-09-20T21:07:55.075Z,8.65
2022-09-20T21:10:23.656Z,8.60
2022-09-20T21:12:53.047Z,8.59
2022-09-20T21:15:21.334Z,8.61
2022-09-20T21:17:52.313Z,8.58
2022-09-20T21:20:21.288Z,8.45
2022-09-20T21:22:48.771Z,8.43
2022-09-20T21:25:17.556Z,8.32
2022-09-20T21:27:45.001Z,8.20
2022-09-20T21:30:13.669Z,7.80
2022-09-20T21:32:41.124Z,7.72
2022-09-20T21:35:09.534Z,8.01
2022-09-20T21:37:37.137Z,8.20
2022-09-20T21:40:05.183Z,8.22
2022-09-20T21:42:33.972Z,8.11
2022-09-20T21:45:01.735Z,8.12
2022-09-20T21:47:29.193Z,8.23
2022-09-20T21:49:56.648Z,8.16
2022-09-20T21:52:24.221Z,8.16
2022-09-20T21:54:51.813Z,8.03
2022-09-20T21:57:19.295Z,7.81
2022-09-20T21:59:48.195Z,7.87
2022-09-20T22:02:16.950Z,8.05
2022-09-20T22:04:44.426Z,8.03
2022-09-20T22:07:11.880Z,7.94
2022-09-20T22:09:39.983Z,7.82
2022-09-20T22:12:07.649Z,7.67
2022-09-20T22:14:39.312Z,7.53
2022-09-20T22:17:08.294Z,7.72
2022-09-20T22:19:36.183Z,7.82
2022-09-20T22:22:03.678Z,7.90
2022-09-20T22:24:31.111Z,7.89
2022-09-20T22:26:58.555Z,7.82
2022-09-20T22:29:26.084Z,7.46
2022-09-20T22:31:53.518Z,7.59
2022-09-20T22:34:23.628Z,7.77
2022-09-20T22:36:52.052Z,7.75
2022-09-20T22:39:19.536Z,7.87
2022-09-20T22:41:47.776Z,7.86
2022-09-20T22:44:15.323Z,7.84
2022-09-20T22:46:42.788Z,7.79
2022-09-20T22:49:10.620Z,7.76
2022-09-20T22:51:39.475Z,7.76
2022-09-20T22:54:09.173Z,7.74
2022-09-20T22:56:37.774Z,7.70
2022-09-20T22:59:07.410Z,7.67
2022-09-20T23:01:36.685Z,7.64
2022-09-20T23:04:07.666Z,7.60
2022-09-20T23:06:37.679Z,7.57
2022-09-20T23:09:08.839Z,7.51
2022-09-20T23:11:36.454Z,7.48
2022-09-20T23:14:05.963Z,7.47
2022-09-20T23:16:35.786Z,7.43
2022-09-20T23:19:05.734Z,7.38
2022-09-20T23:21:34.072Z,7.31
2022-09-20T23:24:03.354Z,7.29
2022-09-20T23:26:34.315Z,7.21
2022-09-20T23:29:03.485Z,7.15
2022-09-20T23:31:32.713Z,6.97
2022-09-20T23:34:02.477Z,7.12
2022-09-20T23:36:31.945Z,7.11
2022-09-20T23:38:59.735Z,7.23
2022-09-20T23:41:28.542Z,7.30
2022-09-20T23:43:57.416Z,7.32
2022-09-20T23:46:26.344Z,7.28
2022-09-20T23:48:54.576Z,7.25
2022-09-20T23:51:24.890Z,7.25
2022-09-20T23:53:53.784Z,7.20
2022-09-20T23:56:22.591Z,7.15
2022-09-20T23:58:50.700Z,7.07
